sensor_id;sensor_type;location;lat;lon;timestamp;pressure;altitude;pressure_sealevel;temperature;humidity
63907;BME280;50075;49.484;11.238;2022-09-03T00:05:09;97696.88;;;18.23;86.81
63907;BME280;50075;49.484;11.238;2022-09-03T00:10:10;97689.34;;;18.52;85.89
63907;BME280;50075;49.484;11.238;2022-09-03T00:12:42;97689.13;;;18.44;85.42
63907;BME280;50075;49.484;11.238;2022-09-03T00:17:43;97691.25;;;18.61;85.41
63907;BME280;50075;49.484;11.238;2022-09-03T00:20:15;97685.25;;;18.59;87.64
63907;BME280;50075;49.484;11.238;2022-09-03T00:22:46;97684.66;;;18.67;84.24
63907;BME280;50075;49.484;11.238;2022-09-03T00:25:18;97684.91;;;18.64;85.99
63907;BME280;50075;49.484;11.238;2022-09-03T00:27:45;97694.63;;;18.41;83.92
63907;BME280;50075;49.484;11.238;2022-09-03T00:30:16;97689.34;;;18.63;85.92
63907;BME280;50075;49.484;11.238;2022-09-03T00:32:47;97679.50;;;18.77;85.71
63907;BME280;50075;49.484;11.238;2022-09-03T00:35:19;97680.47;;;18.87;86.67
63907;BME280;50075;49.484;11.238;2022-09-03T00:37:50;97683.34;;;18.61;85.85
63907;BME280;50075;49.484;11.238;2022-09-03T00:49:26;97681.13;;;17.99;89.18
63907;BME280;50075;49.484;11.238;2022-09-03T00:52:07;97679.25;;;17.77;92.26
63907;BME280;50075;49.484;11.238;2022-09-03T00:55:12;97689.16;;;17.86;89.86
63907;BME280;50075;49.484;11.238;2022-09-03T01:00:41;97688.22;;;17.63;90.26
63907;BME280;50075;49.484;11.238;2022-09-03T01:06:16;97691.03;;;17.00;95.25
63907;BME280;50075;49.484;11.238;2022-09-03T01:09:06;97689.56;;;16.96;98.70
63907;BME280;50075;49.484;11.238;2022-09-03T01:33:50;97689.19;;;17.13;100.00
63907;BME280;50075;49.484;11.238;2022-09-03T01:39:05;97694.41;;;17.50;100.00
63907;BME280;50075;49.484;11.238;2022-09-03T01:52:54;97691.47;;;16.94;100.00
63907;BME280;50075;49.484;11.238;2022-09-03T02:00:26;97697.56;;;16.82;100.00
63907;BME280;50075;49.484;11.238;2022-09-03T02:02:54;97698.78;;;17.14;100.00
63907;BME280;50075;49.484;11.238;2022-09-03T02:05:25;97703.00;;;17.17;100.00
63907;BME280;50075;49.484;11.238;2022-09-03T02:08:06;97710.47;;;16.73;100.00
63907;BME280;50075;49.484;11.238;2022-09-03T02:10:53;97702.63;;;17.22;100.00
63907;BME280;50075;49.484;11.238;2022-09-03T02:15:57;97708.34;;;16.79;100.00
63907;BME280;50075;49.484;11.238;2022-09-03T02:18:35;97699.22;;;17.08;100.00
63907;BME280;50075;49.484;11.238;2022-09-03T02:21:01;97708.59;;;16.37;100.00
63907;BME280;50075;49.484;11.238;2022-09-03T02:23:27;97713.22;;;16.08;100.00
63907;BME280;50075;49.484;11.238;2022-09-03T02:25:57;97703.97;;;16.41;100.00
63907;BME280;50075;49.484;11.238;2022-09-03T02:28:25;97702.66;;;16.85;100.00
63907;BME280;50075;49.484;11.238;2022-09-03T02:30:52;97701.66;;;16.62;100.00
63907;BME280;50075;49.484;11.238;2022-09-03T02:33:17;97702.28;;;16.65;100.00
63907;BME280;50075;49.484;11.238;2022-09-03T02:35:43;97704.16;;;16.63;100.00
63907;BME280;50075;49.484;11.238;2022-09-03T02:38:20;97706.56;;;16.66;100.00
63907;BME280;50075;49.484;11.238;2022-09-03T02:40:46;97701.25;;;16.29;100.00
63907;BME280;50075;49.484;11.238;2022-09-03T02:43:22;97701.34;;;16.41;100.00
63907;BME280;50075;49.484;11.238;2022-09-03T02:45:53;97701.78;;;16.09;100.00
63907;BME280;50075;49.484;11.238;2022-09-03T02:48:23;97699.88;;;16.36;100.00
63907;BME280;50075;49.484;11.238;2022-09-03T02:50:48;97703.25;;;16.13;100.00
63907;BME280;50075;49.484;11.238;2022-09-03T02:53:14;97695.97;;;16.04;100.00
63907;BME280;50075;49.484;11.238;2022-09-03T02:55:40;97695.66;;;15.95;100.00
63907;BME280;50075;49.484;11.238;2022-09-03T02:58:05;97688.28;;;16.00;100.00
63907;BME280;50075;49.484;11.238;2022-09-03T03:00:32;97696.19;;;16.00;100.00
63907;BME280;50075;49.484;11.238;2022-09-03T03:03:00;97698.09;;;16.24;100.00
63907;BME280;50075;49.484;11.238;2022-09-03T03:05:35;97698.31;;;16.21;100.00
63907;BME280;50075;49.484;11.238;2022-09-03T03:08:02;97691.69;;;15.63;100.00
63907;BME280;50075;49.484;11.238;2022-09-03T03:10:28;97690.50;;;15.81;100.00
63907;BME280;50075;49.484;11.238;2022-09-03T03:12:53;97685.97;;;15.96;100.00
63907;BME280;50075;49.484;11.238;2022-09-03T03:15:18;97689.44;;;16.22;100.00
63907;BME280;50075;49.484;11.238;2022-09-03T03:17:44;97687.56;;;15.98;100.00
63907;BME280;50075;49.484;11.238;2022-09-03T03:20:10;97691.84;;;15.74;100.00
63907;BME280;50075;49.484;11.238;2022-09-03T03:22:35;97694.06;;;15.80;100.00
63907;BME280;50075;49.484;11.238;2022-09-03T03:25:00;97689.81;;;15.65;100.00
63907;BME280;50075;49.484;11.238;2022-09-03T03:27:26;97689.53;;;15.82;100.00
63907;BME280;50075;49.484;11.238;2022-09-03T03:29:52;97689.56;;;15.68;100.00
63907;BME280;50075;49.484;11.238;2022-09-03T03:32:18;97691.09;;;15.72;100.00
63907;BME280;50075;49.484;11.238;2022-09-03T03:34:44;97691.47;;;15.66;100.00
63907;BME280;50075;49.484;11.238;2022-09-03T03:37:09;97683.16;;;15.59;100.00
63907;BME280;50075;49.484;11.238;2022-09-03T03:39:35;97681.38;;;15.59;100.00
63907;BME280;50075;49.484;11.238;2022-09-03T03:42:00;97685.16;;;15.55;100.00
63907;BME280;50075;49.484;11.238;2022-09-03T03:44:25;97686.00;;;15.69;100.00
63907;BME280;50075;49.484;11.238;2022-09-03T03:46:51;97688.34;;;15.73;100.00
63907;BME280;50075;49.484;11.238;2022-09-03T03:49:16;97683.72;;;15.64;100.00
63907;BME280;50075;49.484;11.238;2022-09-03T03:51:41;97686.50;;;15.88;100.00
63907;BME280;50075;49.484;11.238;2022-09-03T03:54:07;97683.44;;;15.41;100.00
63907;BME280;50075;49.484;11.238;2022-09-03T03:56:33;97684.03;;;15.72;100.00
63907;BME280;50075;49.484;11.238;2022-09-03T03:58:59;97683.66;;;15.38;100.00
63907;BME280;50075;49.484;11.238;2022-09-03T04:01:26;97685.22;;;15.41;100.00
63907;BME280;50075;49.484;11.238;2022-09-03T04:03:54;97682.53;;;15.55;100.00
63907;BME280;50075;49.484;11.238;2022-09-03T04:06:20;97685.53;;;15.49;100.00
63907;BME280;50075;49.484;11.238;2022-09-03T04:08:47;97678.59;;;15.35;100.00
63907;BME280;50075;49.484;11.238;2022-09-03T04:11:19;97685.19;;;15.68;100.00
63907;BME280;50075;49.484;11.238;2022-09-03T04:13:45;97681.88;;;15.79;100.00
63907;BME280;50075;49.484;11.238;2022-09-03T04:16:13;97681.88;;;15.92;100.00
63907;BME280;50075;49.484;11.238;2022-09-03T04:18:40;97680.56;;;15.72;100.00
63907;BME280;50075;49.484;11.238;2022-09-03T04:21:06;97682.19;;;15.87;100.00
63907;BME280;50075;49.484;11.238;2022-09-03T04:23:38;97679.94;;;15.68;100.00
63907;BME280;50075;49.484;11.238;2022-09-03T04:26:05;97676.34;;;15.69;100.00
63907;BME280;50075;49.484;11.238;2022-09-03T04:28:31;97670.63;;;15.50;100.00
63907;BME280;50075;49.484;11.238;2022-09-03T04:31:04;97681.75;;;15.40;100.00
63907;BME280;50075;49.484;11.238;2022-09-03T04:33:30;97673.28;;;15.63;100.00
63907;BME280;50075;49.484;11.238;2022-09-03T04:36:09;97679.13;;;15.80;100.00
63907;BME280;50075;49.484;11.238;2022-09-03T04:38:37;97678.97;;;15.69;100.00
63907;BME280;50075;49.484;11.238;2022-09-03T04:41:04;97685.97;;;15.83;100.00
63907;BME280;50075;49.484;11.238;2022-09-03T04:43:30;97690.81;;;15.89;100.00
63907;BME280;50075;49.484;11.238;2022-09-03T04:45:57;97684.38;;;15.93;100.00
63907;BME280;50075;49.484;11.238;2022-09-03T04:48:23;97683.19;;;15.72;100.00
63907;BME280;50075;49.484;11.238;2022-09-03T04:50:49;97693.25;;;15.92;100.00
63907;BME280;50075;49.484;11.238;2022-09-03T04:53:14;97689.66;;;15.93;100.00
63907;BME280;50075;49.484;11.238;2022-09-03T04:55:39;97695.78;;;15.67;100.00
63907;BME280;50075;49.484;11.238;2022-09-03T04:58:05;97701.88;;;16.20;100.00
63907;BME280;50075;49.484;11.238;2022-09-03T05:00:35;97703.88;;;16.04;100.00
63907;BME280;50075;49.484;11.238;2022-09-03T05:03:01;97708.19;;;16.43;100.00
63907;BME280;50075;49.484;11.238;2022-09-03T05:05:29;97709.13;;;16.55;100.00
63907;BME280;50075;49.484;11.238;2022-09-03T05:07:59;97720.38;;;16.83;100.00
63907;BME280;50075;49.484;11.238;2022-09-03T05:10:26;97706.06;;;16.48;100.00
63907;BME280;50075;49.484;11.238;2022-09-03T05:13:03;97713.25;;;16.33;100.00
63907;BME280;50075;49.484;11.238;2022-09-03T05:15:30;97713.72;;;16.77;100.00
63907;BME280;50075;49.484;11.238;2022-09-03T05:18:01;97714.91;;;16.60;100.00
63907;BME280;50075;49.484;11.238;2022-09-03T05:20:28;97715.75;;;17.10;100.00
63907;BME280;50075;49.484;11.238;2022-09-03T05:22:55;97714.81;;;16.49;100.00
63907;BME280;50075;49.484;11.238;2022-09-03T05:25:21;97719.94;;;16.89;100.00
63907;BME280;50075;49.484;11.238;2022-09-03T05:27:47;97701.59;;;17.00;100.00
63907;BME280;50075;49.484;11.238;2022-09-03T05:30:13;97700.88;;;17.22;100.00
63907;BME280;50075;49.484;11.238;2022-09-03T05:32:38;97697.59;;;18.14;100.00
63907;BME280;50075;49.484;11.238;2022-09-03T05:35:04;97692.69;;;18.99;99.54
63907;BME280;50075;49.484;11.238;2022-09-03T05:37:30;97704.94;;;18.66;97.69
63907;BME280;50075;49.484;11.238;2022-09-03T05:39:55;97698.91;;;19.86;91.04
63907;BME280;50075;49.484;11.238;2022-09-03T05:42:21;97698.06;;;19.85;85.06
63907;BME280;50075;49.484;11.238;2022-09-03T05:44:46;97709.56;;;19.63;89.86
63907;BME280;50075;49.484;11.238;2022-09-03T05:47:13;97706.84;;;19.86;85.85
63907;BME280;50075;49.484;11.238;2022-09-03T05:49:39;97700.88;;;18.74;87.69
63907;BME280;50075;49.484;11.238;2022-09-03T05:52:04;97700.16;;;19.38;89.85
63907;BME280;50075;49.484;11.238;2022-09-03T05:54:30;97710.34;;;18.76;91.24
63907;BME280;50075;49.484;11.238;2022-09-03T05:56:55;97711.41;;;19.07;86.74
63907;BME280;50075;49.484;11.238;2022-09-03T05:59:20;97716.16;;;19.36;87.16
63907;BME280;50075;49.484;11.238;2022-09-03T06:01:46;97709.34;;;19.11;88.37
63907;BME280;50075;49.484;11.238;2022-09-03T06:04:13;97712.16;;;18.64;90.23
63907;BME280;50075;49.484;11.238;2022-09-03T06:06:40;97720.09;;;18.53;89.98
63907;BME280;50075;49.484;11.238;2022-09-03T06:09:09;97708.91;;;18.95;92.37
63907;BME280;50075;49.484;11.238;2022-09-03T06:11:36;97715.31;;;18.81;93.11
63907;BME280;50075;49.484;11.238;2022-09-03T06:14:04;97710.47;;;18.41;94.49
63907;BME280;50075;49.484;11.238;2022-09-03T06:16:32;97714.81;;;18.64;94.01
63907;BME280;50075;49.484;11.238;2022-09-03T06:18:58;97720.19;;;20.05;86.94
63907;BME280;50075;49.484;11.238;2022-09-03T06:21:24;97718.44;;;20.88;83.15
63907;BME280;50075;49.484;11.238;2022-09-03T06:23:51;97719.09;;;21.50;77.27
63907;BME280;50075;49.484;11.238;2022-09-03T06:26:17;97715.06;;;20.86;75.33
63907;BME280;50075;49.484;11.238;2022-09-03T06:28:43;97719.69;;;21.54;76.39
63907;BME280;50075;49.484;11.238;2022-09-03T06:31:14;97720.16;;;21.28;74.80
63907;BME280;50075;49.484;11.238;2022-09-03T06:33:40;97720.34;;;22.34;70.13
63907;BME280;50075;49.484;11.238;2022-09-03T06:36:09;97721.78;;;22.94;69.64
63907;BME280;50075;49.484;11.238;2022-09-03T06:38:37;97725.47;;;23.20;64.96
63907;BME280;50075;49.484;11.238;2022-09-03T06:41:10;97736.13;;;23.56;62.28
63907;BME280;50075;49.484;11.238;2022-09-03T06:43:40;97735.75;;;22.68;64.91
63907;BME280;50075;49.484;11.238;2022-09-03T06:46:14;97744.91;;;24.73;60.45
63907;BME280;50075;49.484;11.238;2022-09-03T06:48:41;97746.28;;;25.95;58.66
63907;BME280;50075;49.484;11.238;2022-09-03T06:51:09;97733.31;;;23.58;57.65
63907;BME280;50075;49.484;11.238;2022-09-03T06:53:40;97736.16;;;24.97;56.43
63907;BME280;50075;49.484;11.238;2022-09-03T06:56:11;97750.56;;;25.12;54.31
63907;BME280;50075;49.484;11.238;2022-09-03T06:58:39;97751.41;;;26.54;50.69
63907;BME280;50075;49.484;11.238;2022-09-03T07:03:34;97749.31;;;25.25;51.44
63907;BME280;50075;49.484;11.238;2022-09-03T07:06:07;97750.69;;;25.37;52.16
63907;BME280;50075;49.484;11.238;2022-09-03T07:08:33;97739.59;;;26.24;47.90
63907;BME280;50075;49.484;11.238;2022-09-03T07:11:10;97741.41;;;25.15;50.65
63907;BME280;50075;49.484;11.238;2022-09-03T07:13:43;97736.91;;;25.83;51.81
63907;BME280;50075;49.484;11.238;2022-09-03T07:16:19;97729.88;;;27.03;49.71
63907;BME280;50075;49.484;11.238;2022-09-03T07:18:45;97727.75;;;26.02;50.31
63907;BME280;50075;49.484;11.238;2022-09-03T07:21:16;97724.38;;;26.24;49.27
63907;BME280;50075;49.484;11.238;2022-09-03T07:23:42;97718.94;;;24.83;52.13
63907;BME280;50075;49.484;11.238;2022-09-03T07:26:11;97716.00;;;25.37;52.65
63907;BME280;50075;49.484;11.238;2022-09-03T07:28:38;97719.19;;;25.06;53.28
63907;BME280;50075;49.484;11.238;2022-09-03T07:31:09;97713.72;;;24.73;53.70
63907;BME280;50075;49.484;11.238;2022-09-03T07:33:36;97711.94;;;25.25;53.31
63907;BME280;50075;49.484;11.238;2022-09-03T07:36:04;97723.00;;;26.61;49.20
63907;BME280;50075;49.484;11.238;2022-09-03T07:38:31;97718.34;;;24.63;54.04
63907;BME280;50075;49.484;11.238;2022-09-03T07:40:58;97717.03;;;24.67;55.26
63907;BME280;50075;49.484;11.238;2022-09-03T07:43:28;97717.25;;;24.03;55.67
63907;BME280;50075;49.484;11.238;2022-09-03T07:45:54;97725.28;;;23.67;57.52
63907;BME280;50075;49.484;11.238;2022-09-03T07:48:21;97723.00;;;22.14;62.01
63907;BME280;50075;49.484;11.238;2022-09-03T07:50:47;97729.00;;;23.11;60.07
63907;BME280;50075;49.484;11.238;2022-09-03T07:53:14;97718.44;;;23.83;59.09
63907;BME280;50075;49.484;11.238;2022-09-03T07:55:39;97722.59;;;24.03;58.00
63907;BME280;50075;49.484;11.238;2022-09-03T07:58:05;97721.44;;;23.52;60.58
63907;BME280;50075;49.484;11.238;2022-09-03T08:00:31;97723.16;;;23.71;59.68
63907;BME280;50075;49.484;11.238;2022-09-03T08:02:58;97722.19;;;25.46;54.58
63907;BME280;50075;49.484;11.238;2022-09-03T08:05:31;97724.19;;;27.06;51.21
63907;BME280;50075;49.484;11.238;2022-09-03T08:07:58;97726.59;;;28.78;46.81
63907;BME280;50075;49.484;11.238;2022-09-03T08:10:24;97731.91;;;27.64;47.76
63907;BME280;50075;49.484;11.238;2022-09-03T08:12:52;97741.97;;;30.65;43.41
63907;BME280;50075;49.484;11.238;2022-09-03T08:15:18;97732.75;;;31.97;40.86
63907;BME280;50075;49.484;11.238;2022-09-03T08:17:43;97740.16;;;29.94;41.53
63907;BME280;50075;49.484;11.238;2022-09-03T08:20:09;97730.94;;;32.04;39.06
63907;BME280;50075;49.484;11.238;2022-09-03T08:22:35;97727.19;;;32.12;38.16
63907;BME280;50075;49.484;11.238;2022-09-03T08:25:01;97728.25;;;29.82;41.67
63907;BME280;50075;49.484;11.238;2022-09-03T08:27:27;97730.69;;;27.12;44.46
63907;BME280;50075;49.484;11.238;2022-09-03T08:29:53;97719.19;;;27.89;45.77
63907;BME280;50075;49.484;11.238;2022-09-03T08:32:19;97719.56;;;30.58;40.81
63907;BME280;50075;49.484;11.238;2022-09-03T08:34:44;97725.34;;;32.06;38.81
63907;BME280;50075;49.484;11.238;2022-09-03T08:37:11;97718.91;;;32.14;38.35
63907;BME280;50075;49.484;11.238;2022-09-03T08:39:36;97728.69;;;29.27;40.98
63907;BME280;50075;49.484;11.238;2022-09-03T08:42:59;97713.69;;;29.54;41.80
63907;BME280;50075;49.484;11.238;2022-09-03T08:45:01;97710.50;;;29.66;42.28
63907;BME280;50075;49.484;11.238;2022-09-03T08:50:14;97714.25;;;28.98;43.74
63907;BME280;50075;49.484;11.238;2022-09-03T08:52:58;97710.59;;;29.36;42.87
63907;BME280;50075;49.484;11.238;2022-09-03T09:17:00;97697.22;;;29.42;42.65
63907;BME280;50075;49.484;11.238;2022-09-03T09:19:36;97700.31;;;29.76;42.92
63907;BME280;50075;49.484;11.238;2022-09-03T09:22:13;97694.09;;;30.95;40.17
63907;BME280;50075;49.484;11.238;2022-09-03T09:24:45;97690.78;;;30.30;40.73
63907;BME280;50075;49.484;11.238;2022-09-03T09:27:14;97690.91;;;31.20;40.40
63907;BME280;50075;49.484;11.238;2022-09-03T09:29:45;97684.81;;;31.93;37.75
63907;BME280;50075;49.484;11.238;2022-09-03T09:32:13;97692.28;;;32.64;34.48
63907;BME280;50075;49.484;11.238;2022-09-03T09:34:41;97677.53;;;31.53;35.93
63907;BME280;50075;49.484;11.238;2022-09-03T09:37:14;97687.75;;;31.91;37.15
63907;BME280;50075;49.484;11.238;2022-09-03T09:39:41;97681.56;;;30.39;40.34
63907;BME280;50075;49.484;11.238;2022-09-03T09:42:20;97670.28;;;31.60;38.53
63907;BME280;50075;49.484;11.238;2022-09-03T09:44:46;97679.22;;;31.54;38.96
63907;BME280;50075;49.484;11.238;2022-09-03T09:47:20;97675.88;;;32.59;36.12
63907;BME280;50075;49.484;11.238;2022-09-03T09:50:00;97666.13;;;31.51;38.62
63907;BME280;50075;49.484;11.238;2022-09-03T09:52:28;97669.50;;;31.93;37.31
63907;BME280;50075;49.484;11.238;2022-09-03T09:55:12;97649.63;;;34.38;33.47
63907;BME280;50075;49.484;11.238;2022-09-03T09:57:38;97664.44;;;34.11;33.02
63907;BME280;50075;49.484;11.238;2022-09-03T10:00:09;97654.19;;;33.94;33.46
63907;BME280;50075;49.484;11.238;2022-09-03T10:02:37;97659.47;;;35.25;31.16
63907;BME280;50075;49.484;11.238;2022-09-03T10:05:23;97662.59;;;32.51;35.49
63907;BME280;50075;49.484;11.238;2022-09-03T10:07:57;97651.97;;;34.10;33.16
63907;BME280;50075;49.484;11.238;2022-09-03T10:10:24;97656.72;;;34.40;32.77
63907;BME280;50075;49.484;11.238;2022-09-03T10:13:06;97658.50;;;31.95;35.26
63907;BME280;50075;49.484;11.238;2022-09-03T10:15:45;97660.63;;;34.62;31.96
63907;BME280;50075;49.484;11.238;2022-09-03T10:19:05;97655.44;;;31.03;36.84
63907;BME280;50075;49.484;11.238;2022-09-03T10:21:44;97658.94;;;29.34;38.44
63907;BME280;50075;49.484;11.238;2022-09-03T10:24:33;97654.53;;;31.90;35.73
63907;BME280;50075;49.484;11.238;2022-09-03T10:27:08;97656.19;;;30.20;37.55
63907;BME280;50075;49.484;11.238;2022-09-03T10:29:39;97647.00;;;31.32;37.05
63907;BME280;50075;49.484;11.238;2022-09-03T10:50:58;97631.81;;;33.23;34.10
63907;BME280;50075;49.484;11.238;2022-09-03T11:02:14;97617.13;;;32.61;35.84
63907;BME280;50075;49.484;11.238;2022-09-03T11:05:04;97617.53;;;32.64;36.26
63907;BME280;50075;49.484;11.238;2022-09-03T11:07:43;97612.09;;;30.14;39.89
63907;BME280;50075;49.484;11.238;2022-09-03T11:10:20;97612.81;;;30.78;39.59
63907;BME280;50075;49.484;11.238;2022-09-03T11:15:37;97616.69;;;32.51;37.09
63907;BME280;50075;49.484;11.238;2022-09-03T11:20:39;97609.81;;;30.46;38.64
63907;BME280;50075;49.484;11.238;2022-09-03T11:23:06;97604.75;;;31.66;37.38
63907;BME280;50075;49.484;11.238;2022-09-03T11:25:39;97611.19;;;31.59;37.37
63907;BME280;50075;49.484;11.238;2022-09-03T11:33:23;97591.44;;;31.18;38.70
63907;BME280;50075;49.484;11.238;2022-09-03T11:35:59;97593.50;;;31.16;38.05
63907;BME280;50075;49.484;11.238;2022-09-03T11:38:26;97590.97;;;30.46;39.92
63907;BME280;50075;49.484;11.238;2022-09-03T11:46:01;97589.22;;;31.62;37.82
63907;BME280;50075;49.484;11.238;2022-09-03T11:56:23;97573.34;;;30.99;38.96
63907;BME280;50075;49.484;11.238;2022-09-03T12:04:14;97576.91;;;30.99;39.75
63907;BME280;50075;49.484;11.238;2022-09-03T12:06:46;97587.25;;;32.36;37.48
63907;BME280;50075;49.484;11.238;2022-09-03T12:17:51;97565.94;;;30.52;44.33
63907;BME280;50075;49.484;11.238;2022-09-03T12:20:40;97562.06;;;31.63;42.06
63907;BME280;50075;49.484;11.238;2022-09-03T12:23:09;97564.47;;;30.98;42.17
63907;BME280;50075;49.484;11.238;2022-09-03T12:25:42;97575.31;;;30.28;43.62
63907;BME280;50075;49.484;11.238;2022-09-03T12:28:12;97561.56;;;31.00;43.10
63907;BME280;50075;49.484;11.238;2022-09-03T12:30:41;97563.94;;;29.41;45.96
63907;BME280;50075;49.484;11.238;2022-09-03T12:33:07;97562.25;;;29.62;45.95
63907;BME280;50075;49.484;11.238;2022-09-03T12:35:33;97560.88;;;29.73;46.01
63907;BME280;50075;49.484;11.238;2022-09-03T12:37:58;97567.38;;;30.48;44.25
63907;BME280;50075;49.484;11.238;2022-09-03T12:40:28;97562.19;;;31.02;42.85
63907;BME280;50075;49.484;11.238;2022-09-03T12:42:55;97557.19;;;30.09;44.50
63907;BME280;50075;49.484;11.238;2022-09-03T12:45:45;97553.59;;;30.78;44.18
63907;BME280;50075;49.484;11.238;2022-09-03T12:48:14;97547.84;;;28.83;48.23
63907;BME280;50075;49.484;11.238;2022-09-03T12:50:40;97551.06;;;29.87;47.02
63907;BME280;50075;49.484;11.238;2022-09-03T12:53:08;97548.28;;;29.73;46.94
63907;BME280;50075;49.484;11.238;2022-09-03T12:58:15;97556.09;;;29.68;47.28
63907;BME280;50075;49.484;11.238;2022-09-03T13:06:13;97557.38;;;30.90;44.38
63907;BME280;50075;49.484;11.238;2022-09-03T13:08:49;97553.00;;;30.89;44.38
63907;BME280;50075;49.484;11.238;2022-09-03T13:11:20;97554.94;;;30.96;44.09
63907;BME280;50075;49.484;11.238;2022-09-03T13:14:07;97557.41;;;29.51;46.57
63907;BME280;50075;49.484;11.238;2022-09-03T13:30:03;97574.19;;;29.81;46.61
63907;BME280;50075;49.484;11.238;2022-09-03T13:35:25;97578.00;;;29.00;48.24
63907;BME280;50075;49.484;11.238;2022-09-03T13:45:59;97565.97;;;28.30;51.93
63907;BME280;50075;49.484;11.238;2022-09-03T13:48:33;97567.22;;;27.98;52.81
63907;BME280;50075;49.484;11.238;2022-09-03T13:51:36;97565.25;;;28.06;53.50
63907;BME280;50075;49.484;11.238;2022-09-03T13:56:53;97562.56;;;28.36;52.86
63907;BME280;50075;49.484;11.238;2022-09-03T13:59:30;97566.38;;;28.27;53.92
63907;BME280;50075;49.484;11.238;2022-09-03T14:04:53;97575.78;;;28.89;51.91
63907;BME280;50075;49.484;11.238;2022-09-03T14:12:46;97552.81;;;29.45;51.52
63907;BME280;50075;49.484;11.238;2022-09-03T14:15:26;97562.13;;;28.84;51.33
63907;BME280;50075;49.484;11.238;2022-09-03T14:20:43;97566.22;;;28.50;53.37
63907;BME280;50075;49.484;11.238;2022-09-03T14:25:55;97569.69;;;28.59;54.88
63907;BME280;50075;49.484;11.238;2022-09-03T14:28:36;97581.31;;;29.02;54.56
63907;BME280;50075;49.484;11.238;2022-09-03T14:33:47;97569.97;;;28.49;55.27
63907;BME280;50075;49.484;11.238;2022-09-03T14:36:29;97577.69;;;27.84;57.13
63907;BME280;50075;49.484;11.238;2022-09-03T14:41:56;97583.81;;;27.55;59.04
63907;BME280;50075;49.484;11.238;2022-09-03T14:44:51;97586.16;;;27.96;59.19
63907;BME280;50075;49.484;11.238;2022-09-03T14:56:09;97582.88;;;27.25;63.53
63907;BME280;50075;49.484;11.238;2022-09-03T15:01:28;97577.00;;;27.91;63.17
63907;BME280;50075;49.484;11.238;2022-09-03T15:14:55;97558.63;;;27.64;65.61
63907;BME280;50075;49.484;11.238;2022-09-03T15:23:22;97559.28;;;27.20;67.64
63907;BME280;50075;49.484;11.238;2022-09-03T15:37:30;97553.75;;;27.30;68.92
63907;BME280;50075;49.484;11.238;2022-09-03T15:42:28;97553.47;;;27.63;67.97
63907;BME280;50075;49.484;11.238;2022-09-03T15:45:01;97558.56;;;27.87;67.50
63907;BME280;50075;49.484;11.238;2022-09-03T15:47:36;97552.38;;;26.80;71.86
63907;BME280;50075;49.484;11.238;2022-09-03T15:56:09;97562.84;;;26.66;69.29
63907;BME280;50075;49.484;11.238;2022-09-03T15:58:44;97559.84;;;26.61;70.89
63907;BME280;50075;49.484;11.238;2022-09-03T16:06:54;97575.94;;;26.05;73.67
63907;BME280;50075;49.484;11.238;2022-09-03T16:17:42;97581.63;;;26.89;71.61
63907;BME280;50075;49.484;11.238;2022-09-03T16:23:19;97594.06;;;26.34;73.89
63907;BME280;50075;49.484;11.238;2022-09-03T16:25:54;97589.16;;;26.46;74.05
63907;BME280;50075;49.484;11.238;2022-09-03T16:28:40;97603.16;;;26.09;74.67
63907;BME280;50075;49.484;11.238;2022-09-03T16:38:59;97628.38;;;24.65;100.00
63907;BME280;50075;49.484;11.238;2022-09-03T16:41:33;97652.28;;;23.96;100.00
63907;BME280;50075;49.484;11.238;2022-09-03T16:53:19;97696.19;;;22.93;100.00
63907;BME280;50075;49.484;11.238;2022-09-03T16:58:52;97717.13;;;22.30;100.00
63907;BME280;50075;49.484;11.238;2022-09-03T17:15:09;97706.34;;;22.79;100.00
63907;BME280;50075;49.484;11.238;2022-09-03T17:25:49;97705.16;;;21.78;100.00
63907;BME280;50075;49.484;11.238;2022-09-03T17:28:46;97701.06;;;22.32;100.00
63907;BME280;50075;49.484;11.238;2022-09-03T17:34:04;97715.41;;;21.12;100.00
63907;BME280;50075;49.484;11.238;2022-09-03T17:36:38;97719.69;;;21.54;100.00
63907;BME280;50075;49.484;11.238;2022-09-03T17:41:53;97713.16;;;21.08;100.00
63907;BME280;50075;49.484;11.238;2022-09-03T17:49:33;97731.19;;;25.02;100.00
63907;BME280;50075;49.484;11.238;2022-09-03T17:55:14;97698.06;;;23.10;100.00
63907;BME280;50075;49.484;11.238;2022-09-03T17:57:46;97704.41;;;23.45;100.00
63907;BME280;50075;49.484;11.238;2022-09-03T18:00:33;97695.88;;;23.05;100.00
63907;BME280;50075;49.484;11.238;2022-09-03T18:05:56;97709.75;;;22.62;100.00
63907;BME280;50075;49.484;11.238;2022-09-03T18:11:19;97721.63;;;22.67;100.00
63907;BME280;50075;49.484;11.238;2022-09-03T18:17:09;97728.03;;;22.75;100.00
63907;BME280;50075;49.484;11.238;2022-09-03T18:19:49;97736.47;;;22.70;100.00
63907;BME280;50075;49.484;11.238;2022-09-03T18:25:48;97761.91;;;21.77;100.00
63907;BME280;50075;49.484;11.238;2022-09-03T18:28:41;97761.03;;;22.35;100.00
63907;BME280;50075;49.484;11.238;2022-09-03T18:31:30;97764.38;;;22.37;100.00
63907;BME280;50075;49.484;11.238;2022-09-03T18:34:15;97761.59;;;22.19;100.00
63907;BME280;50075;49.484;11.238;2022-09-03T18:37:00;97763.81;;;22.33;100.00
63907;BME280;50075;49.484;11.238;2022-09-03T18:39:44;97771.88;;;22.61;100.00
63907;BME280;50075;49.484;11.238;2022-09-03T18:42:54;97763.78;;;22.52;100.00
63907;BME280;50075;49.484;11.238;2022-09-03T18:45:48;97768.59;;;22.00;100.00
63907;BME280;50075;49.484;11.238;2022-09-03T18:49:11;97767.56;;;22.50;100.00
63907;BME280;50075;49.484;11.238;2022-09-03T18:55:19;97760.91;;;22.17;100.00
63907;BME280;50075;49.484;11.238;2022-09-03T19:04:35;97775.25;;;22.24;100.00